Time;durP1;ratioP1;P1;durP2;ratioP2;P2;SDS_P1;SDS_P2;PMS_P1;PMS_P2;Temp;Humidity;BMP_temperature;BMP_pressure;BME280_temperature;BME280_humidity;BME280_pressure;Samples;Min_cycle;Max_cycle;Signal;HPM_P1;HPM_P2
2021/06/29 00:02:19;;;;;;;9.27;3.67;;;;;;;;;;5133978;28;20115;-70
2021/06/29 00:04:47;;;;;;;4.30;3.17;;;;;;;;;;5115026;28;20029;-69
2021/06/29 00:07:13;;;;;;;5.55;3.10;;;;;;;;;;5115238;28;20072;-70
2021/06/29 00:09:40;;;;;;;5.10;3.30;;;;;;;;;;5133608;28;20102;-69
2021/06/29 00:12:06;;;;;;;7.47;3.40;;;;;;;;;;5133922;28;20106;-67
2021/06/29 00:14:32;;;;;;;4.80;3.25;;;;;;;;;;5115233;28;20033;-69
2021/06/29 00:16:58;;;;;;;8.00;3.08;;;;;;;;;;5133671;28;20033;-69
2021/06/29 00:19:24;;;;;;;6.10;3.13;;;;;;;;;;5115106;28;20110;-68
2021/06/29 00:21:50;;;;;;;3.83;3.13;;;;;;;;;;5133352;28;20034;-70
2021/06/29 00:24:17;;;;;;;5.15;3.08;;;;;;;;;;5133827;28;20341;-68
2021/06/29 00:26:43;;;;;;;4.25;3.25;;;;;;;;;;5133245;28;20038;-67
2021/06/29 00:29:10;;;;;;;5.50;3.30;;;;;;;;;;5133215;28;20026;-68
2021/06/29 00:31:36;;;;;;;6.68;3.30;;;;;;;;;;5115251;28;20030;-68
2021/06/29 00:34:03;;;;;;;6.93;3.05;;;;;;;;;;5116344;27;20019;-67
2021/06/29 00:36:29;;;;;;;5.88;3.50;;;;;;;;;;5114969;28;20047;-68
2021/06/29 00:38:55;;;;;;;6.47;3.38;;;;;;;;;;5116909;28;20110;-69
2021/06/29 00:41:22;;;;;;;6.15;3.25;;;;;;;;;;5116246;27;20043;-67
2021/06/29 00:43:49;;;;;;;6.43;3.25;;;;;;;;;;5115113;28;20024;-70
2021/06/29 00:46:16;;;;;;;4.07;3.15;;;;;;;;;;5116461;28;20103;-66
2021/06/29 00:48:43;;;;;;;7.13;3.92;;;;;;;;;;5115083;28;20044;-68
2021/06/29 00:51:12;;;;;;;5.47;2.85;;;;;;;;;;5116353;28;20020;-69
2021/06/29 00:53:38;;;;;;;4.78;3.08;;;;;;;;;;5116300;28;20532;-69
2021/06/29 00:56:06;;;;;;;3.42;3.03;;;;;;;;;;5116045;28;20031;-67
2021/06/29 00:58:32;;;;;;;5.28;3.25;;;;;;;;;;5114925;28;20038;-67
2021/06/29 01:00:58;;;;;;;5.88;3.30;;;;;;;;;;5116256;28;20028;-67
2021/06/29 01:03:24;;;;;;;6.22;3.40;;;;;;;;;;5114863;28;20114;-67
2021/06/29 01:05:51;;;;;;;6.68;3.70;;;;;;;;;;5116367;28;20157;-69
2021/06/29 01:08:17;;;;;;;6.68;3.70;;;;;;;;;;5114762;28;20062;-68
2021/06/29 01:10:43;;;;;;;10.60;3.20;;;;;;;;;;5116066;28;20016;-68
2021/06/29 01:13:10;;;;;;;6.05;3.30;;;;;;;;;;5114625;28;20027;-68
2021/06/29 01:15:36;;;;;;;3.83;3.00;;;;;;;;;;5115606;28;20020;-68
2021/06/29 01:18:03;;;;;;;6.40;3.30;;;;;;;;;;5115808;28;20118;-68
2021/06/29 01:20:31;;;;;;;7.07;3.30;;;;;;;;;;5115730;28;20471;-67
2021/06/29 01:23:03;;;;;;;5.95;2.97;;;;;;;;;;5115737;28;20020;-66
2021/06/29 01:25:31;;;;;;;4.53;3.17;;;;;;;;;;5115763;28;20024;-66
2021/06/29 01:28:12;;;;;;;5.60;3.53;;;;;;;;;;5115659;28;20092;-66
2021/06/29 01:33:24;;;;;;;9.27;3.20;;;;;;;;;;5115609;28;20080;-67
2021/06/29 01:35:51;;;;;;;6.95;3.45;;;;;;;;;;5116223;28;20442;-66
2021/06/29 01:38:18;;;;;;;6.28;3.08;;;;;;;;;;5136032;27;20436;-67
2021/06/29 01:40:44;;;;;;;7.38;3.67;;;;;;;;;;5135924;27;20019;-68
2021/06/29 01:43:11;;;;;;;6.15;2.85;;;;;;;;;;5135639;27;20106;-67
2021/06/29 01:45:37;;;;;;;6.68;4.35;;;;;;;;;;5135749;27;20012;-68
2021/06/29 01:48:05;;;;;;;7.88;3.40;;;;;;;;;;5135773;27;20035;-65
2021/06/29 01:50:31;;;;;;;5.60;3.60;;;;;;;;;;5135669;27;20057;-66
2021/06/29 01:52:59;;;;;;;5.45;3.35;;;;;;;;;;5135722;27;20034;-66
2021/06/29 01:55:25;;;;;;;4.82;3.58;;;;;;;;;;5117164;27;20110;-65
2021/06/29 01:57:52;;;;;;;5.47;3.70;;;;;;;;;;5135426;27;20026;-65
2021/06/29 02:00:19;;;;;;;3.60;3.28;;;;;;;;;;5135845;27;20080;-68
2021/06/29 02:02:47;;;;;;;4.93;3.72;;;;;;;;;;5117081;27;20020;-65
2021/06/29 02:05:13;;;;;;;4.75;3.22;;;;;;;;;;5135463;27;20023;-67
2021/06/29 02:07:39;;;;;;;8.70;3.97;;;;;;;;;;5135690;27;20503;-67
2021/06/29 02:10:06;;;;;;;7.00;4.25;;;;;;;;;;5135305;27;20023;-65
2021/06/29 02:12:32;;;;;;;8.60;4.75;;;;;;;;;;5135313;27;20051;-66
2021/06/29 02:14:58;;;;;;;11.18;5.28;;;;;;;;;;5135223;27;20030;-65
2021/06/29 02:17:25;;;;;;;9.32;3.85;;;;;;;;;;5116689;27;20034;-65
2021/06/29 02:19:51;;;;;;;10.90;4.22;;;;;;;;;;5135082;27;20031;-67
2021/06/29 02:22:18;;;;;;;11.13;3.95;;;;;;;;;;5135192;27;20057;-65
2021/06/29 02:24:44;;;;;;;8.13;3.33;;;;;;;;;;5134999;27;20099;-67
2021/06/29 02:27:10;;;;;;;5.57;3.83;;;;;;;;;;5134938;27;20050;-65
2021/06/29 02:29:36;;;;;;;11.73;3.90;;;;;;;;;;5134941;27;20106;-65
2021/06/29 02:32:03;;;;;;;5.90;3.65;;;;;;;;;;5134920;27;20035;-65
2021/06/29 02:34:29;;;;;;;15.45;4.18;;;;;;;;;;5116424;27;20467;-67
2021/06/29 02:36:55;;;;;;;13.88;3.92;;;;;;;;;;5134491;27;20550;-66
2021/06/29 02:39:21;;;;;;;11.43;4.47;;;;;;;;;;5135016;27;20075;-67
2021/06/29 02:41:48;;;;;;;9.38;3.70;;;;;;;;;;5116337;27;20024;-67
2021/06/29 02:44:14;;;;;;;8.70;3.20;;;;;;;;;;5134421;27;20455;-69
2021/06/29 02:46:40;;;;;;;4.45;3.70;;;;;;;;;;5116202;27;20031;-68
2021/06/29 02:49:07;;;;;;;11.05;3.53;;;;;;;;;;5134643;27;20106;-66
2021/06/29 02:51:36;;;;;;;11.65;4.75;;;;;;;;;;5115877;27;20113;-67
2021/06/29 02:54:02;;;;;;;25.90;4.95;;;;;;;;;;5134581;27;20011;-68
2021/06/29 02:56:38;;;;;;;7.47;4.03;;;;;;;;;;5115524;27;20160;-65
2021/06/29 02:59:14;;;;;;;12.77;3.50;;;;;;;;;;5115964;27;20428;-70
2021/06/29 03:01:41;;;;;;;11.57;3.40;;;;;;;;;;5134412;27;20482;-67
2021/06/29 03:04:08;;;;;;;6.75;3.63;;;;;;;;;;5134329;27;20031;-66
2021/06/29 03:06:34;;;;;;;38.25;4.45;;;;;;;;;;5134643;27;20023;-68
2021/06/29 03:09:00;;;;;;;6.65;3.30;;;;;;;;;;5134305;27;20027;-67
2021/06/29 03:11:27;;;;;;;6.78;3.25;;;;;;;;;;5115785;27;20015;-65
2021/06/29 03:13:53;;;;;;;5.03;3.60;;;;;;;;;;5115709;27;20019;-65
2021/06/29 03:16:19;;;;;;;9.00;3.47;;;;;;;;;;5134126;27;20072;-66
2021/06/29 03:18:46;;;;;;;8.75;4.03;;;;;;;;;;5134158;27;20523;-66
2021/06/29 03:21:12;;;;;;;8.15;3.88;;;;;;;;;;5134255;27;20098;-64
2021/06/29 03:23:39;;;;;;;7.40;3.30;;;;;;;;;;5134867;28;20479;-68
2021/06/29 03:26:05;;;;;;;4.55;3.50;;;;;;;;;;5134730;27;20027;-65
2021/06/29 03:28:32;;;;;;;6.93;3.35;;;;;;;;;;5134526;27;20019;-65
2021/06/29 03:31:00;;;;;;;8.77;4.35;;;;;;;;;;5150450;28;20022;-65
2021/06/29 03:33:26;;;;;;;12.25;3.65;;;;;;;;;;5140652;28;20109;-65
2021/06/29 03:35:52;;;;;;;6.40;3.40;;;;;;;;;;5158257;28;20084;-65
2021/06/29 03:38:18;;;;;;;8.40;3.58;;;;;;;;;;5135653;28;20126;-64
2021/06/29 03:40:45;;;;;;;6.82;3.92;;;;;;;;;;5133592;28;20024;-65
2021/06/29 03:43:11;;;;;;;6.78;3.75;;;;;;;;;;5133915;28;20019;-66
2021/06/29 03:45:37;;;;;;;8.98;4.60;;;;;;;;;;5133925;28;20102;-66
2021/06/29 03:48:03;;;;;;;9.70;4.13;;;;;;;;;;5134121;28;20110;-67
2021/06/29 03:50:30;;;;;;;7.10;4.40;;;;;;;;;;5115327;28;20023;-68
2021/06/29 03:52:56;;;;;;;21.88;4.35;;;;;;;;;;5133884;28;20015;-69
2021/06/29 03:55:22;;;;;;;15.18;4.53;;;;;;;;;;5115314;28;20103;-68
2021/06/29 03:57:48;;;;;;;12.40;4.07;;;;;;;;;;5115345;28;20057;-67
2021/06/29 04:00:15;;;;;;;13.75;3.72;;;;;;;;;;5133902;28;20023;-66
2021/06/29 04:02:41;;;;;;;8.05;3.72;;;;;;;;;;5116485;28;20371;-65
2021/06/29 04:05:08;;;;;;;8.73;4.18;;;;;;;;;;5134573;28;20016;-65
2021/06/29 04:07:35;;;;;;;8.80;3.47;;;;;;;;;;5116294;27;20491;-66
2021/06/29 04:10:05;;;;;;;7.47;3.83;;;;;;;;;;5137859;27;20023;-68
2021/06/29 04:12:31;;;;;;;8.32;3.63;;;;;;;;;;5138857;27;20051;-67
2021/06/29 04:14:57;;;;;;;6.63;3.17;;;;;;;;;;5138750;27;20023;-66
2021/06/29 04:17:23;;;;;;;5.40;4.20;;;;;;;;;;5138598;27;20024;-66
2021/06/29 04:19:50;;;;;;;7.35;4.35;;;;;;;;;;5137531;27;20019;-66
2021/06/29 04:22:16;;;;;;;7.20;3.78;;;;;;;;;;5137518;27;20034;-67
2021/06/29 04:24:42;;;;;;;9.15;4.10;;;;;;;;;;5137453;27;20432;-65
2021/06/29 04:27:09;;;;;;;7.15;3.58;;;;;;;;;;5137334;27;20035;-66
2021/06/29 04:29:35;;;;;;;9.68;3.80;;;;;;;;;;5137306;27;20023;-65
2021/06/29 04:32:01;;;;;;;7.28;3.45;;;;;;;;;;5118912;27;20522;-66
2021/06/29 04:34:27;;;;;;;9.95;4.25;;;;;;;;;;5137257;27;20026;-67
2021/06/29 04:36:54;;;;;;;5.70;3.50;;;;;;;;;;5118440;27;20047;-66
2021/06/29 04:39:20;;;;;;;8.05;3.88;;;;;;;;;;5136827;27;20023;-66
2021/06/29 04:41:46;;;;;;;9.88;3.83;;;;;;;;;;5137492;27;20094;-66
2021/06/29 04:44:13;;;;;;;12.65;4.20;;;;;;;;;;5118631;27;20550;-66
2021/06/29 04:46:39;;;;;;;5.75;4.10;;;;;;;;;;5118253;27;20023;-67
2021/06/29 04:49:06;;;;;;;6.70;3.75;;;;;;;;;;5118562;27;20019;-67
2021/06/29 04:51:32;;;;;;;5.53;3.40;;;;;;;;;;5118444;27;20467;-67
2021/06/29 04:53:58;;;;;;;5.75;3.80;;;;;;;;;;5136961;27;20224;-66
2021/06/29 04:56:24;;;;;;;7.53;4.38;;;;;;;;;;5136746;27;20035;-66
2021/06/29 04:58:57;;;;;;;7.07;3.53;;;;;;;;;;5137089;27;20110;-67
2021/06/29 05:01:23;;;;;;;5.47;3.92;;;;;;;;;;5136838;27;20031;-68
2021/06/29 05:03:50;;;;;;;7.43;3.90;;;;;;;;;;5118348;27;20035;-67
2021/06/29 05:06:16;;;;;;;9.45;3.72;;;;;;;;;;5118236;27;20091;-68
2021/06/29 05:08:43;;;;;;;8.15;4.00;;;;;;;;;;5136617;27;20015;-68
2021/06/29 05:11:09;;;;;;;12.70;4.38;;;;;;;;;;5136835;27;20136;-68
2021/06/29 05:13:36;;;;;;;5.80;4.32;;;;;;;;;;5136526;27;20136;-66
2021/06/29 05:16:02;;;;;;;7.05;3.65;;;;;;;;;;5136407;27;20035;-67
2021/06/29 05:18:28;;;;;;;9.60;4.13;;;;;;;;;;5136402;27;20372;-68
2021/06/29 05:20:55;;;;;;;6.20;4.03;;;;;;;;;;5136032;27;20024;-67
2021/06/29 05:23:21;;;;;;;11.35;4.40;;;;;;;;;;5136246;27;20027;-66
2021/06/29 05:25:47;;;;;;;9.57;3.90;;;;;;;;;;5117784;27;20031;-66
2021/06/29 05:28:14;;;;;;;12.45;5.28;;;;;;;;;;5136349;27;20098;-68
2021/06/29 05:30:43;;;;;;;7.25;4.45;;;;;;;;;;5117489;27;20055;-67
2021/06/29 05:33:09;;;;;;;9.00;4.25;;;;;;;;;;5136116;27;20027;-67
2021/06/29 05:35:35;;;;;;;8.70;4.47;;;;;;;;;;5117249;27;20019;-67
2021/06/29 05:38:01;;;;;;;9.15;4.30;;;;;;;;;;5135343;27;20058;-68
2021/06/29 05:40:30;;;;;;;7.68;4.20;;;;;;;;;;5135905;27;20023;-69
2021/06/29 05:42:57;;;;;;;9.75;3.92;;;;;;;;;;5135932;27;20019;-67
2021/06/29 05:45:23;;;;;;;8.20;5.00;;;;;;;;;;5117147;27;20114;-67
2021/06/29 05:47:51;;;;;;;5.75;4.30;;;;;;;;;;5135643;27;20022;-67
2021/06/29 05:50:17;;;;;;;10.00;4.65;;;;;;;;;;5135926;27;20026;-65
2021/06/29 05:52:45;;;;;;;9.10;4.60;;;;;;;;;;5135945;27;20058;-67
2021/06/29 05:55:11;;;;;;;6.00;3.95;;;;;;;;;;5135566;27;20023;-66
2021/06/29 05:57:38;;;;;;;7.80;4.47;;;;;;;;;;5135489;27;20030;-67
2021/06/29 06:00:05;;;;;;;7.63;4.70;;;;;;;;;;5135115;27;20413;-66
2021/06/29 06:02:31;;;;;;;9.30;4.53;;;;;;;;;;5117024;27;20253;-67
2021/06/29 06:04:57;;;;;;;11.40;4.30;;;;;;;;;;5135698;27;20011;-66
2021/06/29 06:07:24;;;;;;;8.30;4.63;;;;;;;;;;5135484;27;20118;-68
2021/06/29 06:09:50;;;;;;;8.82;4.45;;;;;;;;;;5134941;27;20384;-68
2021/06/29 06:12:16;;;;;;;5.82;4.20;;;;;;;;;;5135167;27;20018;-66
2021/06/29 06:14:42;;;;;;;5.80;4.07;;;;;;;;;;5116790;27;20118;-67
2021/06/29 06:17:09;;;;;;;9.95;4.25;;;;;;;;;;5135078;27;20042;-68
2021/06/29 06:19:51;;;;;;;9.32;4.45;;;;;;;;;;5134927;27;20077;-69
2021/06/29 06:22:18;;;;;;;11.50;4.40;;;;;;;;;;5116623;27;20019;-67
2021/06/29 06:24:44;;;;;;;6.38;4.28;;;;;;;;;;5116611;27;20119;-67
2021/06/29 06:27:14;;;;;;;8.30;4.45;;;;;;;;;;5135083;27;20106;-66
2021/06/29 06:29:40;;;;;;;8.95;4.03;;;;;;;;;;5134882;27;20026;-68
2021/06/29 06:32:06;;;;;;;11.93;4.50;;;;;;;;;;5134010;27;20065;-67
2021/06/29 06:34:33;;;;;;;7.35;4.28;;;;;;;;;;5134583;27;20027;-66
2021/06/29 06:36:59;;;;;;;5.78;3.53;;;;;;;;;;5134310;27;20082;-67
2021/06/29 06:39:26;;;;;;;8.20;4.60;;;;;;;;;;5134679;27;20027;-68
2021/06/29 06:41:52;;;;;;;5.78;4.35;;;;;;;;;;5134847;27;20031;-69
2021/06/29 06:44:18;;;;;;;8.35;4.60;;;;;;;;;;5134721;27;20495;-66
2021/06/29 06:46:45;;;;;;;7.15;4.53;;;;;;;;;;5116115;27;20069;-69
2021/06/29 06:49:11;;;;;;;7.53;4.32;;;;;;;;;;5134456;27;20015;-68
2021/06/29 06:51:37;;;;;;;12.30;4.82;;;;;;;;;;5116007;27;20106;-66
2021/06/29 06:54:03;;;;;;;10.30;4.47;;;;;;;;;;5130396;27;20019;-67
2021/06/29 06:56:30;;;;;;;13.07;4.57;;;;;;;;;;5133580;27;20471;-66
2021/06/29 06:58:56;;;;;;;11.35;5.20;;;;;;;;;;5115336;27;20015;-65
2021/06/29 07:01:22;;;;;;;7.47;5.10;;;;;;;;;;5133626;27;20356;-69
2021/06/29 07:03:48;;;;;;;8.00;5.15;;;;;;;;;;5115842;27;20581;-68
2021/06/29 07:06:15;;;;;;;9.65;5.40;;;;;;;;;;5134234;27;20081;-68
2021/06/29 07:08:42;;;;;;;15.07;6.20;;;;;;;;;;5115774;27;20425;-68
2021/06/29 07:11:08;;;;;;;13.02;5.60;;;;;;;;;;5115891;27;20757;-69
2021/06/29 07:13:35;;;;;;;10.45;5.65;;;;;;;;;;5134265;27;20088;-69
2021/06/29 07:16:02;;;;;;;9.38;5.22;;;;;;;;;;5115633;27;20067;-68
2021/06/29 07:18:28;;;;;;;13.45;5.38;;;;;;;;;;5115536;27;20031;-69
2021/06/29 07:20:54;;;;;;;10.85;4.63;;;;;;;;;;5134290;27;20110;-69
2021/06/29 07:23:20;;;;;;;12.50;5.60;;;;;;;;;;5115521;27;20118;-68
2021/06/29 07:25:47;;;;;;;8.15;4.90;;;;;;;;;;5133863;27;20043;-68
2021/06/29 07:28:13;;;;;;;8.63;4.65;;;;;;;;;;5115535;28;20410;-68
2021/06/29 07:30:40;;;;;;;29.23;5.38;;;;;;;;;;5133838;28;20019;-70
2021/06/29 07:33:07;;;;;;;10.07;5.03;;;;;;;;;;5133576;28;20467;-68
2021/06/29 07:35:33;;;;;;;5.45;4.60;;;;;;;;;;5115360;28;20027;-68
2021/06/29 07:38:00;;;;;;;7.72;5.03;;;;;;;;;;5133296;28;20039;-68
2021/06/29 07:40:29;;;;;;;12.88;5.20;;;;;;;;;;5115310;28;20015;-68
2021/06/29 07:42:56;;;;;;;6.93;4.95;;;;;;;;;;5135057;27;20024;-68
2021/06/29 07:45:22;;;;;;;7.55;4.38;;;;;;;;;;5138131;27;20482;-68
2021/06/29 07:47:48;;;;;;;13.70;4.78;;;;;;;;;;5137968;27;20041;-68
2021/06/29 07:50:15;;;;;;;10.23;4.90;;;;;;;;;;5138068;27;20061;-68
2021/06/29 07:52:41;;;;;;;5.05;4.38;;;;;;;;;;5137315;27;20130;-68
2021/06/29 07:55:07;;;;;;;8.27;5.15;;;;;;;;;;5138039;27;20019;-67
2021/06/29 07:57:34;;;;;;;7.93;5.25;;;;;;;;;;5137852;27;20117;-69
2021/06/29 08:00:00;;;;;;;6.53;4.53;;;;;;;;;;5137861;27;20075;-67
2021/06/29 08:02:26;;;;;;;7.28;4.57;;;;;;;;;;5119208;27;20083;-67
2021/06/29 08:04:52;;;;;;;5.90;4.88;;;;;;;;;;5137478;27;20031;-68
2021/06/29 08:07:19;;;;;;;7.50;4.95;;;;;;;;;;5137013;27;20031;-68
2021/06/29 08:09:45;;;;;;;6.85;5.47;;;;;;;;;;5137715;27;20027;-68
2021/06/29 08:12:11;;;;;;;6.45;5.28;;;;;;;;;;5137581;27;20468;-69
2021/06/29 08:14:38;;;;;;;8.07;5.28;;;;;;;;;;5137622;27;20076;-69
2021/06/29 08:17:05;;;;;;;7.80;5.07;;;;;;;;;;5137690;27;20156;-67
2021/06/29 08:19:31;;;;;;;8.95;5.35;;;;;;;;;;5137461;27;20023;-67
2021/06/29 08:21:58;;;;;;;6.63;4.78;;;;;;;;;;5137379;27;20034;-69
2021/06/29 08:24:24;;;;;;;11.40;5.93;;;;;;;;;;5137465;27;20374;-67
2021/06/29 08:26:50;;;;;;;13.60;5.90;;;;;;;;;;5118903;27;20034;-67
2021/06/29 08:29:16;;;;;;;7.03;5.80;;;;;;;;;;5118544;27;20023;-67
2021/06/29 08:31:42;;;;;;;9.20;6.00;;;;;;;;;;5137164;27;20475;-69
2021/06/29 08:34:09;;;;;;;6.30;5.65;;;;;;;;;;5118748;27;20038;-69
2021/06/29 08:36:41;;;;;;;8.90;6.10;;;;;;;;;;5118041;27;20049;-68
2021/06/29 08:39:13;;;;;;;9.75;5.50;;;;;;;;;;5137135;27;20102;-70
2021/06/29 08:41:39;;;;;;;7.30;5.25;;;;;;;;;;5136850;27;20015;-68
2021/06/29 08:44:06;;;;;;;8.57;6.10;;;;;;;;;;5137111;27;20106;-67
2021/06/29 08:46:34;;;;;;;12.15;6.43;;;;;;;;;;5137016;27;20114;-69
2021/06/29 08:49:00;;;;;;;9.32;5.72;;;;;;;;;;5118498;27;20015;-70
2021/06/29 08:51:26;;;;;;;9.38;5.78;;;;;;;;;;5118285;27;20114;-68
2021/06/29 08:53:54;;;;;;;10.15;7.70;;;;;;;;;;5136315;27;20054;-69
2021/06/29 08:56:21;;;;;;;14.52;6.43;;;;;;;;;;5117919;27;20027;-69
2021/06/29 08:58:47;;;;;;;9.23;6.32;;;;;;;;;;5136760;27;20355;-70
2021/06/29 09:01:14;;;;;;;7.90;6.38;;;;;;;;;;5118234;27;20016;-71
2021/06/29 09:03:40;;;;;;;9.35;6.85;;;;;;;;;;5117928;27;20015;-69
2021/06/29 09:06:07;;;;;;;11.50;6.30;;;;;;;;;;5136634;27;20023;-68
2021/06/29 09:08:41;;;;;;;8.57;6.82;;;;;;;;;;5118060;27;20475;-69
2021/06/29 09:11:09;;;;;;;9.98;6.50;;;;;;;;;;5136504;27;20031;-70
2021/06/29 09:13:38;;;;;;;8.82;6.63;;;;;;;;;;5136441;27;20023;-70
2021/06/29 09:16:04;;;;;;;12.40;6.30;;;;;;;;;;5136525;27;20019;-70
2021/06/29 09:18:32;;;;;;;7.70;6.25;;;;;;;;;;5136314;27;20106;-68
2021/06/29 09:21:00;;;;;;;7.35;6.65;;;;;;;;;;5117614;27;20483;-69
2021/06/29 09:23:28;;;;;;;8.38;6.60;;;;;;;;;;5136276;27;20034;-69
2021/06/29 09:26:13;;;;;;;9.20;6.93;;;;;;;;;;5135722;27;20019;-68
2021/06/29 09:28:41;;;;;;;8.98;7.07;;;;;;;;;;5136252;27;20115;-70
2021/06/29 09:31:07;;;;;;;9.95;6.35;;;;;;;;;;5136063;27;20091;-69
2021/06/29 09:33:37;;;;;;;7.32;6.55;;;;;;;;;;5136042;27;20475;-67
2021/06/29 09:36:05;;;;;;;8.95;6.90;;;;;;;;;;5135745;27;20163;-72
2021/06/29 09:38:36;;;;;;;9.30;7.68;;;;;;;;;;5135917;27;20035;-68
2021/06/29 09:41:04;;;;;;;8.48;7.15;;;;;;;;;;5117509;27;20066;-68
2021/06/29 09:43:35;;;;;;;10.13;7.88;;;;;;;;;;5135890;27;20020;-69
2021/06/29 09:46:02;;;;;;;13.75;7.88;;;;;;;;;;5135930;27;20019;-70
2021/06/29 09:48:33;;;;;;;10.35;8.70;;;;;;;;;;5115782;27;20112;-67
2021/06/29 09:51:04;;;;;;;;;;;;;;;;;;5117279;27;20157;-68
2021/06/29 09:53:32;;;;;;;12.65;7.95;;;;;;;;;;5135580;27;19907;-68
2021/06/29 09:55:59;;;;;;;10.07;7.20;;;;;;;;;;5135674;27;20467;-69
2021/06/29 09:58:26;;;;;;;12.52;7.68;;;;;;;;;;5135477;27;20039;-69
2021/06/29 10:00:53;;;;;;;9.95;7.13;;;;;;;;;;5135485;27;20027;-67
2021/06/29 10:03:21;;;;;;;8.27;6.53;;;;;;;;;;5135423;27;20019;-69
2021/06/29 10:05:47;;;;;;;12.13;6.72;;;;;;;;;;5134228;27;20026;-70
2021/06/29 10:08:46;;;;;;;7.97;7.18;;;;;;;;;;5134906;27;20114;-69
2021/06/29 10:11:15;;;;;;;10.18;6.15;;;;;;;;;;5015140;28;20034;-68
2021/06/29 10:13:52;;;;;;;8.10;6.28;;;;;;;;;;5015129;28;20053;-71
2021/06/29 10:16:24;;;;;;;11.90;6.73;;;;;;;;;;5031742;28;20025;-69
2021/06/29 10:21:29;;;;;;;14.90;6.95;;;;;;;;;;5031723;28;20470;-70
2021/06/29 10:24:03;;;;;;;8.47;6.90;;;;;;;;;;5031557;28;20493;-70
2021/06/29 10:26:30;;;;;;;15.43;6.57;;;;;;;;;;5014906;28;20591;-69
2021/06/29 10:28:56;;;;;;;12.52;6.70;;;;;;;;;;5014936;28;20030;-71
2021/06/29 10:31:25;;;;;;;8.50;6.00;;;;;;;;;;5030542;28;20033;-68
2021/06/29 10:33:52;;;;;;;7.35;6.35;;;;;;;;;;5031346;28;20120;-69
2021/06/29 10:36:19;;;;;;;17.33;6.80;;;;;;;;;;5014436;28;20526;-69
2021/06/29 10:38:46;;;;;;;8.57;6.72;;;;;;;;;;5030857;28;20117;-71
2021/06/29 10:41:12;;;;;;;7.57;5.60;;;;;;;;;;5031272;28;20029;-72
2021/06/29 10:43:41;;;;;;;9.88;6.82;;;;;;;;;;5031322;28;20029;-73
2021/06/29 10:46:12;;;;;;;7.20;5.60;;;;;;;;;;5054609;27;20031;-70
2021/06/29 10:48:39;;;;;;;;;;;;;;;;;;5135068;27;20039;-70
2021/06/29 10:51:05;;;;;;;5.43;5.00;;;;;;;;;;5134459;27;19909;-68
2021/06/29 10:53:31;;;;;;;9.70;5.43;;;;;;;;;;5134112;27;20080;-69
2021/06/29 10:55:58;;;;;;;7.25;4.97;;;;;;;;;;5116210;27;20075;-68
2021/06/29 10:58:35;;;;;;;9.73;4.97;;;;;;;;;;5134372;27;20027;-68
2021/06/29 11:01:22;;;;;;;6.43;5.63;;;;;;;;;;5116018;27;20053;-69
2021/06/29 11:03:49;;;;;;;10.82;4.93;;;;;;;;;;5116037;27;20367;-68
2021/06/29 11:06:31;;;;;;;6.20;4.60;;;;;;;;;;5134468;27;20034;-68
2021/06/29 11:08:59;;;;;;;6.47;4.70;;;;;;;;;;5134291;27;20386;-69
2021/06/29 11:11:26;;;;;;;5.68;5.22;;;;;;;;;;5134469;27;20031;-68
2021/06/29 11:13:53;;;;;;;8.15;4.60;;;;;;;;;;5115750;27;20031;-67
2021/06/29 11:16:39;;;;;;;6.30;4.70;;;;;;;;;;5133944;27;20510;-68
2021/06/29 11:19:05;;;;;;;8.02;5.20;;;;;;;;;;5133761;27;20039;-69
2021/06/29 11:21:34;;;;;;;5.50;4.75;;;;;;;;;;5133886;27;20038;-67
2021/06/29 11:24:01;;;;;;;5.63;5.10;;;;;;;;;;5115596;28;20463;-70
2021/06/29 11:26:27;;;;;;;7.05;4.72;;;;;;;;;;5134169;27;20101;-69
2021/06/29 11:29:05;;;;;;;6.70;5.15;;;;;;;;;;5115455;27;20068;-67
2021/06/29 11:31:32;;;;;;;8.93;4.88;;;;;;;;;;5115462;28;20482;-67
2021/06/29 11:34:10;;;;;;;6.85;4.93;;;;;;;;;;5133977;28;20066;-68
2021/06/29 11:36:36;;;;;;;8.20;5.20;;;;;;;;;;5131424;27;20055;-67
2021/06/29 11:39:17;;;;;;;5.47;4.50;;;43.40;66.60;;;;;;5115118;28;20047;-69
2021/06/29 11:41:46;;;;;;;8.20;4.78;;;;;;;;;;5133950;28;20035;-68
2021/06/29 11:44:12;;;;;;;7.80;4.43;;;;;;;;;;5133804;28;20026;-68
2021/06/29 11:47:01;;;;;;;5.70;4.35;;;;;;;;;;5133884;28;20019;-68
2021/06/29 11:49:29;;;;;;;9.70;4.83;;;;;;;;;;5133858;28;20162;-69
2021/06/29 11:51:56;;;;;;;9.73;4.55;;;44.40;42.70;;;;;;5133803;28;20023;-70
2021/06/29 11:54:28;;;;;;;6.05;4.10;;;;;;;;;;5114599;28;20491;-68
2021/06/29 11:56:56;;;;;;;5.32;3.65;;;44.70;40.10;;;;;;5131418;28;20023;-65
2021/06/29 11:59:26;;;;;;;9.40;4.28;;;;;;;;;;5114458;28;20356;-68
2021/06/29 12:02:24;;;;;;;8.60;4.10;;;45.40;40.60;;;;;;5133039;28;20098;-67
2021/06/29 12:04:53;;;;;;;8.60;3.63;;;46.00;39.30;;;;;;5029724;28;20033;-70
2021/06/29 12:07:44;;;;;;;6.47;3.90;;;46.20;40.30;;;;;;5029830;28;20111;-67
2021/06/29 12:10:24;;;;;;;4.47;3.85;;;46.60;38.40;;;;;;5029998;28;20271;-68
2021/06/29 12:13:03;;;;;;;9.75;4.30;;;46.00;39.00;;;;;;5029569;28;20029;-69
2021/06/29 12:15:35;;;;;;;10.30;4.40;;;45.70;41.30;;;;;;5029912;28;20083;-69
2021/06/29 12:18:05;;;;;;;6.93;4.30;;;45.30;40.90;;;;;;5029708;28;20037;-67
2021/06/29 12:20:53;;;;;;;8.80;4.40;;;45.90;40.90;;;;;;5030037;28;20041;-67
2021/06/29 12:23:21;;;;;;;6.93;4.97;;;46.50;40.60;;;;;;5029817;28;20160;-67
2021/06/29 12:25:59;;;;;;;7.28;4.35;;;47.10;39.10;;;;;;5029896;28;20021;-69
2021/06/29 12:28:29;;;;;;;7.78;4.72;;;47.20;40.90;;;;;;5029429;28;20037;-72
2021/06/29 12:31:00;;;;;;;11.07;4.60;;;46.90;38.80;;;;;;5032689;28;20026;-69
2021/06/29 12:33:31;;;;;;;12.07;4.60;;;47.90;38.90;;;;;;5033786;28;20569;-68
2021/06/29 12:36:14;;;;;;;6.57;4.43;;;48.30;38.80;;;;;;5016829;28;20571;-71
2021/06/29 12:38:42;;;;;;;5.97;4.38;;;47.70;38.40;;;;;;5033519;28;20073;-68
2021/06/29 12:41:15;;;;;;;6.47;4.90;;;47.90;38.20;;;;;;5073665;28;20451;-68
2021/06/29 12:43:43;;;;;;;6.32;4.78;;;47.90;38.00;;;;;;5116269;28;20107;-68
2021/06/29 12:46:16;;;;;;;8.02;4.88;;;47.90;38.60;;;;;;5116516;28;20023;-70
2021/06/29 12:49:27;;;;;;;9.73;4.35;;;48.20;38.20;;;;;;5116220;28;20027;-68
2021/06/29 12:51:56;;;;;;;10.75;5.00;;;48.60;37.90;;;;;;5033471;28;20475;-69
2021/06/29 12:54:24;;;;;;;8.45;4.55;;;49.20;39.30;;;;;;5032230;28;20037;-70
2021/06/29 12:57:01;;;;;;;16.08;5.28;;;49.20;38.00;;;;;;5032998;28;20037;-69
2021/06/29 12:59:30;;;;;;;8.02;4.25;;;49.30;38.60;;;;;;5033189;28;20036;-69
2021/06/29 13:02:02;;;;;;;12.32;4.80;;;49.30;37.00;;;;;;5016602;28;20064;-68
2021/06/29 13:04:35;;;;;;;10.48;4.40;;;48.70;37.40;;;;;;5033142;28;20065;-67
2021/06/29 13:07:04;;;;;;;14.20;4.38;;;48.10;36.60;;;;;;5032901;28;20046;-67
2021/06/29 13:09:36;;;;;;;11.68;4.57;;;48.80;36.80;;;;;;5032752;28;20033;-67
2021/06/29 13:12:07;;;;;;;6.50;5.03;;;49.10;36.60;;;;;;5033112;28;20034;-69
2021/06/29 13:14:34;;;;;;;7.03;4.28;;;49.50;37.40;;;;;;5016565;28;20441;-70
2021/06/29 13:17:13;;;;;;;10.00;4.75;;;50.00;37.60;;;;;;5032835;28;20037;-70
2021/06/29 13:19:39;;;;;;;8.98;4.35;;;50.20;36.40;;;;;;5032733;28;20032;-71
2021/06/29 13:22:10;;;;;;;7.70;4.20;;;50.50;37.20;;;;;;5016112;28;20030;-68
2021/06/29 13:24:41;;;;;;;13.73;4.70;;;51.00;37.10;;;;;;5016069;28;20083;-70
2021/06/29 13:27:07;;;;;;;9.63;4.22;;;51.10;36.10;;;;;;5069650;28;20039;-67
2021/06/29 13:29:36;;;;;;;4.80;4.30;;;51.20;36.10;;;;;;5115499;28;20019;-66
2021/06/29 13:32:07;;;;;;;7.93;4.57;;;51.60;35.50;;;;;;5115598;28;20024;-67
2021/06/29 13:34:35;;;;;;;15.38;4.30;;;51.70;34.90;;;;;;5097281;28;20475;-66
2021/06/29 13:37:25;;;;;;;7.90;4.13;;;51.90;41.60;;;;;;5115435;28;20039;-69
2021/06/29 13:39:51;;;;;;;10.57;3.78;;;51.60;35.10;;;;;;5115458;28;20019;-68
2021/06/29 13:42:20;;;;;;;14.68;4.97;;;52.00;35.10;;;;;;5115169;28;20067;-68
2021/06/29 13:45:05;;;;;;;8.98;4.70;;;51.90;35.70;;;;;;5115260;28;20019;-70
2021/06/29 13:47:31;;;;;;;11.13;4.28;;;52.20;35.00;;;;;;5133449;27;20035;-70
2021/06/29 13:50:06;;;;;;;12.88;4.68;;;52.40;35.20;;;;;;5117332;27;20087;-67
2021/06/29 13:52:32;;;;;;;10.30;4.53;;;52.60;34.30;;;;;;5130663;27;20019;-69
2021/06/29 13:55:11;;;;;;;13.05;4.40;;;52.60;34.00;;;;;;5135508;27;20031;-69
2021/06/29 13:57:38;;;;;;;9.80;3.88;;;52.40;34.90;;;;;;5135586;27;20092;-67
2021/06/29 14:00:23;;;;;;;10.35;3.95;;;52.60;34.00;;;;;;5135713;27;20111;-68
2021/06/29 14:03:03;;;;;;;11.00;5.15;;;52.30;33.80;;;;;;5135376;27;20031;-68
2021/06/29 14:05:34;;;;;;;10.25;4.15;;;52.10;35.80;;;;;;5116982;27;20050;-70
2021/06/29 14:08:15;;;;;;;14.68;4.78;;;51.80;35.70;;;;;;5135140;27;20035;-70
2021/06/29 14:10:43;;;;;;;12.88;3.90;;;51.10;35.10;;;;;;5135674;27;20478;-70
2021/06/29 14:13:09;;;;;;;9.27;4.20;;;50.60;34.50;;;;;;5135364;27;20031;-69
2021/06/29 14:15:37;;;;;;;11.95;4.13;;;50.80;34.10;;;;;;5135325;27;20070;-71
2021/06/29 14:18:04;;;;;;;6.72;4.40;;;51.50;34.90;;;;;;5116834;27;20134;-70
2021/06/29 14:20:31;;;;;;;7.97;4.63;;;52.10;34.20;;;;;;5135201;27;20050;-69
2021/06/29 14:22:57;;;;;;;16.20;5.30;;;52.70;33.50;;;;;;5116701;27;20027;-69
2021/06/29 14:25:23;;;;;;;16.25;4.78;;;53.00;34.00;;;;;;5135079;27;20030;-69
2021/06/29 14:27:53;;;;;;;10.30;4.45;;;52.90;34.10;;;;;;5135103;27;20038;-71
2021/06/29 14:30:20;;;;;;;13.73;4.63;;;52.80;34.60;;;;;;5135105;27;20019;-68